createdAt,value
2023-04-12T00:01:24.637Z,99511.59
2023-04-12T00:03:51.558Z,99508.91
2023-04-12T00:06:18.322Z,99497.75
2023-04-12T00:08:44.970Z,99501.22
2023-04-12T00:11:11.605Z,99516.13
2023-04-12T00:13:38.676Z,99509.84
2023-04-12T00:16:05.820Z,99492.69
2023-04-12T00:18:32.696Z,99504.75
2023-04-12T00:20:59.300Z,99519.56
2023-04-12T00:23:26.155Z,99505.53
2023-04-12T00:25:52.826Z,99525.56
2023-04-12T00:28:19.468Z,99530.03
2023-04-12T00:30:46.208Z,99531.78
2023-04-12T00:33:12.907Z,99525.63
2023-04-12T00:35:39.642Z,99511.75
2023-04-12T00:38:06.427Z,99532.56
2023-04-12T00:40:33.084Z,99525.94
2023-04-12T00:43:00.606Z,99535.16
2023-04-12T00:45:30.288Z,99527.19
2023-04-12T00:47:57.027Z,99534.41
2023-04-12T00:50:23.776Z,99525.06
2023-04-12T00:52:50.589Z,99528.25
2023-04-12T00:55:17.687Z,99545.00
2023-04-12T00:57:44.332Z,99533.50
2023-04-12T01:00:11.836Z,99532.72
2023-04-12T01:02:41.759Z,99533.03
2023-04-12T01:05:09.441Z,99519.94
2023-04-12T01:07:48.105Z,99523.59
2023-04-12T01:10:26.308Z,99525.16
2023-04-12T01:13:14.600Z,99524.22
2023-04-12T01:16:02.093Z,99530.28
2023-04-12T01:18:30.894Z,99531.25
2023-04-12T01:21:05.706Z,99532.78
2023-04-12T01:23:52.178Z,99537.03
2023-04-12T01:26:21.901Z,99525.75
2023-04-12T01:28:53.137Z,99525.44
2023-04-12T01:31:21.290Z,99519.16
2023-04-12T01:33:50.942Z,99511.44
2023-04-12T01:36:21.784Z,99510.63
2023-04-12T01:38:49.907Z,99507.69
2023-04-12T01:41:16.770Z,99512.94
2023-04-12T01:43:45.591Z,99509.94
2023-04-12T01:46:14.718Z,99515.06
2023-04-12T01:48:49.953Z,99512.28
2023-04-12T01:51:27.897Z,99505.50
2023-04-12T01:54:01.018Z,99513.75
2023-04-12T01:56:31.444Z,99516.41
2023-04-12T01:58:59.914Z,99517.63
2023-04-12T02:01:28.273Z,99515.72
2023-04-12T02:03:57.920Z,99514.63
2023-04-12T02:06:26.320Z,99514.09
2023-04-12T02:09:06.468Z,99520.84
2023-04-12T02:11:33.328Z,99526.81
2023-04-12T02:14:00.080Z,99514.50
2023-04-12T02:16:27.421Z,99517.06
2023-04-12T02:18:54.032Z,99515.47
2023-04-12T02:21:20.807Z,99506.03
2023-04-12T02:23:47.414Z,99512.94
2023-04-12T02:26:14.003Z,99516.88
2023-04-12T02:28:40.620Z,99513.56
2023-04-12T02:31:07.482Z,99515.19
2023-04-12T02:33:34.478Z,99514.78
2023-04-12T02:36:01.922Z,99504.44
2023-04-12T02:38:29.096Z,99506.16
2023-04-12T02:40:55.729Z,99501.28
2023-04-12T02:43:22.573Z,99504.72
2023-04-12T02:45:52.375Z,99497.94
2023-04-12T02:48:19.009Z,99509.41
2023-04-12T02:50:45.643Z,99494.59
2023-04-12T02:53:12.261Z,99485.22
2023-04-12T02:55:38.976Z,99492.78
2023-04-12T02:58:05.727Z,99499.56
2023-04-12T03:00:32.347Z,99499.63
2023-04-12T03:03:00.914Z,99502.19
2023-04-12T03:05:27.599Z,99495.50
2023-04-12T03:07:54.487Z,99489.28
2023-04-12T03:10:21.315Z,99490.22
2023-04-12T03:12:47.939Z,99496.56
2023-04-12T03:15:14.668Z,99499.03
2023-04-12T03:17:41.526Z,99500.75
2023-04-12T03:20:09.508Z,99501.69
2023-04-12T03:22:37.064Z,99492.91
2023-04-12T03:25:05.160Z,99496.38
2023-04-12T03:27:32.064Z,99492.72
2023-04-12T03:29:58.774Z,99492.28
2023-04-12T03:32:25.461Z,99489.44
2023-04-12T03:34:52.163Z,99492.03
2023-04-12T03:37:19.048Z,99482.72
2023-04-12T03:39:45.694Z,99483.44
2023-04-12T03:42:25.412Z,99475.66
2023-04-12T03:44:58.908Z,99477.41
2023-04-12T03:47:25.640Z,99476.81
2023-04-12T03:50:09.635Z,99474.88
2023-04-12T03:52:38.309Z,99471.50
2023-04-12T03:55:05.363Z,99467.50
2023-04-12T03:57:32.126Z,99465.63
2023-04-12T03:59:58.850Z,99472.38
2023-04-12T04:02:27.711Z,99474.09
2023-04-12T04:04:54.656Z,99463.78
2023-04-12T04:07:23.048Z,99462.84
2023-04-12T04:09:49.734Z,99464.69
2023-04-12T04:12:16.324Z,99476.16
2023-04-12T04:14:43.069Z,99474.44
2023-04-12T04:17:09.725Z,99476.09
2023-04-12T04:19:36.339Z,99478.41
2023-04-12T04:22:02.927Z,99478.09
2023-04-12T04:24:29.539Z,99484.47
2023-04-12T04:26:56.186Z,99480.13
2023-04-12T04:29:22.866Z,99482.19
2023-04-12T04:31:49.594Z,99474.25
2023-04-12T04:34:16.320Z,99481.22
2023-04-12T04:36:43.021Z,99487.91
2023-04-12T04:39:09.743Z,99482.91
2023-04-12T04:41:36.362Z,99474.38
2023-04-12T04:44:02.999Z,99476.94
2023-04-12T04:46:29.748Z,99474.38
2023-04-12T04:48:56.753Z,99477.13
2023-04-12T04:51:23.419Z,99473.41
2023-04-12T04:53:50.035Z,99469.94
2023-04-12T04:56:16.637Z,99469.94
2023-04-12T04:58:46.414Z,99476.72
2023-04-12T05:01:13.138Z,99477.72
2023-04-12T05:03:39.945Z,99472.59
2023-04-12T05:06:06.961Z,99474.34
2023-04-12T05:08:33.540Z,99474.09
2023-04-12T05:11:00.178Z,99469.75
2023-04-12T05:13:26.981Z,99476.66
2023-04-12T05:15:53.702Z,99467.91
2023-04-12T05:18:20.712Z,99469.59
2023-04-12T05:20:47.366Z,99467.50
2023-04-12T05:23:14.940Z,99474.44
2023-04-12T05:25:45.840Z,99467.16
2023-04-12T05:28:13.738Z,99462.84
2023-04-12T05:30:40.745Z,99461.78
2023-04-12T05:33:07.430Z,99456.22
2023-04-12T05:35:34.240Z,99450.47
2023-04-12T05:38:01.059Z,99459.22
2023-04-12T05:40:27.680Z,99454.66
2023-04-12T05:42:54.485Z,99464.81
2023-04-12T05:45:21.080Z,99468.28
2023-04-12T05:47:47.809Z,99465.50
2023-04-12T05:50:14.681Z,99469.19
2023-04-12T05:52:41.325Z,99459.06
2023-04-12T05:55:08.265Z,99467.75
2023-04-12T05:57:34.974Z,99459.63
2023-04-12T06:00:01.639Z,99466.53
2023-04-12T06:02:28.451Z,99468.25
2023-04-12T06:04:55.541Z,99472.66
2023-04-12T06:07:22.825Z,99478.91
2023-04-12T06:09:49.451Z,99485.53
2023-04-12T06:12:16.206Z,99483.63
2023-04-12T06:14:42.939Z,99493.97
2023-04-12T06:17:09.536Z,99496.69
2023-04-12T06:19:36.161Z,99493.78
2023-04-12T06:22:02.908Z,99492.97
2023-04-12T06:24:29.535Z,99492.09
2023-04-12T06:26:56.167Z,99478.75
2023-04-12T06:29:22.848Z,99497.81
2023-04-12T06:31:49.467Z,99492.50
2023-04-12T06:34:16.108Z,99494.75
2023-04-12T06:36:42.837Z,99498.56
2023-04-12T06:39:09.729Z,99494.88
2023-04-12T06:41:36.384Z,99498.88
2023-04-12T06:44:02.974Z,99494.81
2023-04-12T06:46:29.684Z,99494.81
2023-04-12T06:48:56.569Z,99503.47
2023-04-12T06:51:23.314Z,99505.16
2023-04-12T06:53:49.905Z,99496.31
2023-04-12T06:56:18.444Z,99497.88
2023-04-12T06:58:45.837Z,99496.78
2023-04-12T07:01:12.716Z,99497.22
2023-04-12T07:03:39.731Z,99490.13
2023-04-12T07:06:17.757Z,99497.22
2023-04-12T07:08:50.807Z,99495.59
2023-04-12T07:11:21.506Z,99482.53
2023-04-12T07:13:49.364Z,99499.53
2023-04-12T07:16:16.614Z,99501.03
2023-04-12T07:18:43.223Z,99499.03
2023-04-12T07:21:10.058Z,99503.13
2023-04-12T07:23:36.789Z,99498.97
2023-04-12T07:26:03.462Z,99498.94
2023-04-12T07:28:30.114Z,99496.44
2023-04-12T07:30:56.732Z,99499.91
2023-04-12T07:33:25.871Z,99506.03
2023-04-12T07:35:52.568Z,99506.34
2023-04-12T07:38:19.569Z,99497.53
2023-04-12T07:40:49.821Z,99492.56
2023-04-12T07:43:16.937Z,99497.97
2023-04-12T07:45:43.700Z,99504.34
2023-04-12T07:48:10.430Z,99497.25
2023-04-12T07:50:37.258Z,99498.56
2023-04-12T07:53:24.803Z,99496.59
2023-04-12T07:55:51.554Z,99501.84
2023-04-12T07:58:19.514Z,99488.94
2023-04-12T08:00:46.964Z,99491.97
2023-04-12T08:03:16.022Z,99496.78
2023-04-12T08:05:43.593Z,99493.16
2023-04-12T08:08:10.777Z,99499.66
2023-04-12T08:10:40.200Z,99492.72
2023-04-12T08:13:07.541Z,99497.00
2023-04-12T08:15:34.511Z,99495.44
2023-04-12T08:18:02.426Z,99500.16
2023-04-12T08:20:29.932Z,99496.81
2023-04-12T08:22:56.809Z,99501.28
2023-04-12T08:25:23.539Z,99500.00
2023-04-12T08:27:51.161Z,99500.59
2023-04-12T08:30:18.165Z,99502.75
2023-04-12T08:32:45.032Z,99494.06
2023-04-12T08:35:11.727Z,99489.53
2023-04-12T08:37:38.506Z,99501.28
2023-04-12T08:40:08.601Z,99490.00
2023-04-12T08:42:35.994Z,99501.38
2023-04-12T08:45:06.794Z,99500.38
2023-04-12T08:47:39.552Z,99505.69
2023-04-12T08:50:07.364Z,99498.91
2023-04-12T08:52:34.332Z,99495.81
2023-04-12T08:55:10.490Z,99490.97
2023-04-12T08:57:40.553Z,99500.72
2023-04-12T09:00:11.030Z,99491.28
2023-04-12T09:02:39.127Z,99488.81
2023-04-12T09:05:07.384Z,99494.50
2023-04-12T09:07:34.329Z,99485.47
2023-04-12T09:10:01.126Z,99488.06
2023-04-12T09:12:28.046Z,99495.09
2023-04-12T09:15:13.832Z,99485.03
2023-04-12T09:17:42.463Z,99481.72
2023-04-12T09:20:12.502Z,99487.47
2023-04-12T09:22:39.430Z,99485.16
2023-04-12T09:25:06.595Z,99488.34
2023-04-12T09:27:46.950Z,99482.41
2023-04-12T09:30:15.898Z,99474.31
2023-04-12T09:32:42.965Z,99478.69
2023-04-12T09:35:10.005Z,99464.09
2023-04-12T09:37:36.846Z,99457.88
2023-04-12T09:40:06.670Z,99455.38
2023-04-12T09:42:35.024Z,99457.09
2023-04-12T09:45:25.465Z,99453.78
2023-04-12T09:47:53.007Z,99448.69
2023-04-12T09:50:30.304Z,99449.53
2023-04-12T09:52:58.062Z,99446.59
2023-04-12T09:55:27.436Z,99447.53
2023-04-12T09:57:56.717Z,99443.25
2023-04-12T10:00:24.347Z,99434.63
2023-04-12T10:02:53.589Z,99430.75
2023-04-12T10:05:22.391Z,99427.66
2023-04-12T10:07:49.890Z,99430.81
2023-04-12T10:10:18.559Z,99430.81
2023-04-12T10:12:47.980Z,99428.50
2023-04-12T10:15:16.180Z,99431.28
2023-04-12T10:17:45.723Z,99435.78
2023-04-12T10:20:17.317Z,99431.28
2023-04-12T10:22:49.416Z,99430.75
2023-04-12T10:25:24.163Z,99421.44
2023-04-12T10:27:51.123Z,99425.09
2023-04-12T10:30:27.800Z,99437.63
2023-04-12T10:33:03.652Z,99438.38
2023-04-12T10:35:56.082Z,99425.88
2023-04-12T10:38:24.125Z,99428.84
2023-04-12T10:41:15.686Z,99427.69
2023-04-12T10:43:44.354Z,99425.56
2023-04-12T10:46:36.076Z,99424.00
2023-04-12T10:49:12.759Z,99404.50
2023-04-12T10:51:40.183Z,99408.25
2023-04-12T10:54:18.862Z,99411.00
2023-04-12T10:56:46.911Z,99406.06
2023-04-12T10:59:14.908Z,99407.00
2023-04-12T11:02:03.088Z,99405.28
2023-04-12T11:04:30.318Z,99391.81
2023-04-12T11:06:59.839Z,99387.31
2023-04-12T11:09:34.279Z,99390.09
2023-04-12T11:12:03.628Z,99379.66
2023-04-12T11:14:38.775Z,99391.63
2023-04-12T11:17:08.187Z,99390.03
2023-04-12T11:19:40.915Z,99385.41
2023-04-12T11:22:10.558Z,99389.97
2023-04-12T11:24:40.760Z,99384.00
2023-04-12T11:27:08.629Z,99388.97
2023-04-12T11:29:35.521Z,99384.88
2023-04-12T11:32:12.046Z,99391.16
2023-04-12T11:34:38.867Z,99382.13
2023-04-12T11:37:09.889Z,99388.81
2023-04-12T11:39:44.338Z,99381.38
2023-04-12T11:42:19.265Z,99376.81
2023-04-12T11:47:19.630Z,99367.06
2023-04-12T11:49:48.517Z,99366.53
2023-04-12T11:52:16.546Z,99357.00
2023-04-12T11:54:50.936Z,99364.94
2023-04-12T11:57:19.118Z,99375.53
2023-04-12T11:59:47.182Z,99361.41
2023-04-12T12:02:22.574Z,99366.25
2023-04-12T12:04:51.340Z,99355.22
2023-04-12T12:07:19.333Z,99348.22
2023-04-12T12:09:46.564Z,99345.69
2023-04-12T12:12:14.008Z,99334.22
2023-04-12T12:14:43.819Z,99351.72
2023-04-12T12:17:14.462Z,99347.06
2023-04-12T12:19:43.493Z,99351.41
2023-04-12T12:22:21.317Z,99334.31
2023-04-12T12:24:58.339Z,99338.31
2023-04-12T12:27:34.517Z,99326.19
2023-04-12T12:30:02.324Z,99324.97
2023-04-12T12:32:37.126Z,99314.50
2023-04-12T12:35:09.197Z,99322.72
2023-04-12T12:37:36.294Z,99313.81
2023-04-12T12:40:11.459Z,99316.19
2023-04-12T12:42:51.276Z,99318.00
2023-04-12T12:45:20.125Z,99308.59
2023-04-12T12:48:00.030Z,99309.66
2023-04-12T12:50:29.568Z,99309.50
2023-04-12T12:52:57.042Z,99298.66
2023-04-12T12:55:24.685Z,99304.97
2023-04-12T12:58:07.582Z,99313.72
2023-04-12T13:00:35.444Z,99311.50
2023-04-12T13:03:04.733Z,99308.34
2023-04-12T13:05:31.693Z,99302.16
2023-04-12T13:07:58.454Z,99303.88
2023-04-12T13:10:25.092Z,99299.41
2023-04-12T13:12:51.747Z,99290.50
2023-04-12T13:15:22.935Z,99291.38
2023-04-12T13:17:54.473Z,99294.44
2023-04-12T13:20:25.942Z,99293.41
2023-04-12T13:22:52.610Z,99283.16
2023-04-12T13:25:19.807Z,99287.00
2023-04-12T13:27:48.212Z,99289.66
2023-04-12T13:30:15.131Z,99289.28
2023-04-12T13:32:41.830Z,99285.19
2023-04-12T13:35:08.851Z,99291.34
2023-04-12T13:37:35.578Z,99290.22
2023-04-12T13:40:03.033Z,99284.41
2023-04-12T13:42:29.753Z,99274.66
2023-04-12T13:44:56.878Z,99270.88
2023-04-12T13:47:23.722Z,99270.25
2023-04-12T13:49:50.562Z,99260.59
2023-04-12T13:52:17.216Z,99264.94
2023-04-12T13:54:43.921Z,99261.28
2023-04-12T13:57:10.679Z,99264.84
2023-04-12T13:59:37.326Z,99265.78
2023-04-12T14:02:04.169Z,99259.19
2023-04-12T14:04:31.649Z,99263.34
2023-04-12T14:07:00.023Z,99265.44
2023-04-12T14:09:27.927Z,99266.72
2023-04-12T14:11:56.080Z,99261.25
2023-04-12T14:14:23.543Z,99254.41
2023-04-12T14:16:51.736Z,99258.22
2023-04-12T14:19:18.456Z,99260.88
2023-04-12T14:21:45.138Z,99257.06
2023-04-12T14:24:11.836Z,99255.81
2023-04-12T14:26:39.072Z,99247.34
2023-04-12T14:29:09.327Z,99242.31
2023-04-12T14:31:36.152Z,99248.31
2023-04-12T14:34:04.434Z,99246.72
2023-04-12T14:36:32.101Z,99253.34
2023-04-12T14:39:00.959Z,99247.91
2023-04-12T14:41:27.635Z,99254.41
2023-04-12T14:43:54.311Z,99258.53
2023-04-12T14:46:21.135Z,99251.22
2023-04-12T14:48:47.814Z,99243.28
2023-04-12T14:51:14.582Z,99246.94
2023-04-12T14:53:41.323Z,99248.66
2023-04-12T14:56:23.219Z,99243.81
2023-04-12T14:58:54.315Z,99248.38
2023-04-12T15:01:22.665Z,99245.53
2023-04-12T15:03:50.276Z,99247.88
2023-04-12T15:06:17.855Z,99234.84
2023-04-12T15:08:44.528Z,99247.19
2023-04-12T15:11:12.160Z,99241.44
2023-04-12T15:13:39.797Z,99241.06
2023-04-12T15:16:09.112Z,99241.28
2023-04-12T15:18:39.440Z,99242.97
2023-04-12T15:21:07.772Z,99247.88
2023-04-12T15:23:35.101Z,99242.97
2023-04-12T15:26:02.242Z,99237.09
2023-04-12T15:28:33.060Z,99238.31
2023-04-12T15:30:59.856Z,99238.44
2023-04-12T15:33:26.762Z,99244.41
2023-04-12T15:35:54.592Z,99241.19
2023-04-12T15:38:23.881Z,99251.66
2023-04-12T15:40:55.665Z,99244.41
2023-04-12T15:43:23.672Z,99255.09
2023-04-12T15:45:51.741Z,99249.00
2023-04-12T15:48:19.497Z,99252.19
2023-04-12T15:50:46.829Z,99247.97
2023-04-12T15:53:15.322Z,99248.97
2023-04-12T15:55:46.722Z,99238.88
2023-04-12T15:58:14.021Z,99240.28
2023-04-12T16:00:40.771Z,99242.53
2023-04-12T16:03:07.689Z,99242.56
2023-04-12T16:05:34.889Z,99241.53
2023-04-12T16:08:02.143Z,99244.81
2023-04-12T16:10:28.983Z,99240.97
2023-04-12T16:12:56.626Z,99234.59
2023-04-12T16:15:23.528Z,99232.31
2023-04-12T16:17:50.810Z,99247.53
2023-04-12T16:20:17.835Z,99245.44
2023-04-12T16:22:45.590Z,99235.31
2023-04-12T16:25:12.298Z,99230.81
2023-04-12T16:27:38.975Z,99222.22
2023-04-12T16:30:06.444Z,99223.28
2023-04-12T16:32:33.454Z,99223.47
2023-04-12T16:35:00.407Z,99223.94
2023-04-12T16:37:28.821Z,99225.38
2023-04-12T16:39:55.603Z,99228.09
2023-04-12T16:42:23.083Z,99218.84
2023-04-12T16:44:51.481Z,99218.22
2023-04-12T16:47:23.477Z,99222.94
2023-04-12T16:49:50.501Z,99215.06
2023-04-12T16:52:17.254Z,99209.47
2023-04-12T16:54:44.411Z,99222.63
2023-04-12T16:57:12.145Z,99220.31
2023-04-12T16:59:40.135Z,99218.25
2023-04-12T17:02:06.954Z,99215.44
2023-04-12T17:04:33.758Z,99217.91
2023-04-12T17:07:03.447Z,99229.91
2023-04-12T17:09:30.203Z,99228.53
2023-04-12T17:11:57.050Z,99220.97
2023-04-12T17:14:23.725Z,99215.53
2023-04-12T17:16:50.377Z,99224.28
2023-04-12T17:19:17.128Z,99216.34
2023-04-12T17:21:43.982Z,99219.38
2023-04-12T17:24:10.702Z,99224.53
2023-04-12T17:26:40.178Z,99220.63
2023-04-12T17:29:06.922Z,99227.63
2023-04-12T17:31:36.477Z,99226.59
2023-04-12T17:34:03.121Z,99220.75
2023-04-12T17:36:29.992Z,99221.97
2023-04-12T17:38:57.356Z,99219.72
2023-04-12T17:41:24.037Z,99215.16
2023-04-12T17:43:50.637Z,99211.47
2023-04-12T17:46:17.295Z,99212.63
2023-04-12T17:48:43.947Z,99215.72
2023-04-12T17:51:10.552Z,99218.44
2023-04-12T17:53:37.164Z,99220.38
2023-04-12T17:56:03.887Z,99222.50
2023-04-12T17:58:30.963Z,99223.69
2023-04-12T18:00:58.170Z,99224.78
2023-04-12T18:03:25.193Z,99221.91
2023-04-12T18:05:51.959Z,99229.19
2023-04-12T18:08:18.813Z,99229.03
2023-04-12T18:10:45.454Z,99232.41
2023-04-12T18:13:12.089Z,99237.00
2023-04-12T18:15:38.880Z,99230.56
2023-04-12T18:18:05.771Z,99227.16
2023-04-12T18:20:32.653Z,99228.38
2023-04-12T18:22:59.594Z,99227.38
2023-04-12T18:25:26.341Z,99225.44
2023-04-12T18:27:53.341Z,99222.72
2023-04-12T18:30:20.160Z,99224.19
2023-04-12T18:32:46.902Z,99223.69
2023-04-12T18:35:13.748Z,99224.66
2023-04-12T18:37:40.505Z,99227.81
2023-04-12T18:40:07.577Z,99226.69
2023-04-12T18:42:34.290Z,99236.78
2023-04-12T18:45:01.043Z,99241.47
2023-04-12T18:47:27.921Z,99248.84
2023-04-12T18:49:55.231Z,99245.72
2023-04-12T18:52:21.926Z,99248.22
2023-04-12T18:54:48.589Z,99250.19
2023-04-12T18:57:15.688Z,99245.03
2023-04-12T18:59:42.429Z,99247.72
2023-04-12T19:02:09.123Z,99252.22
2023-04-12T19:04:35.989Z,99251.84
2023-04-12T19:07:02.605Z,99251.13
2023-04-12T19:09:29.242Z,99242.22
2023-04-12T19:11:55.949Z,99247.94
2023-04-12T19:14:22.838Z,99251.25
2023-04-12T19:16:52.743Z,99247.38
2023-04-12T19:19:19.451Z,99253.41
2023-04-12T19:21:46.124Z,99251.22
2023-04-12T19:24:13.080Z,99250.47
2023-04-12T19:26:39.747Z,99247.78
2023-04-12T19:29:06.640Z,99247.16
2023-04-12T19:31:33.387Z,99250.09
2023-04-12T19:34:00.180Z,99248.09
2023-04-12T19:36:26.995Z,99246.25
2023-04-12T19:38:53.636Z,99249.13
2023-04-12T19:41:20.674Z,99254.25
2023-04-12T19:43:47.507Z,99246.19
2023-04-12T19:46:14.335Z,99249.97
2023-04-12T19:48:41.037Z,99250.03
2023-04-12T19:51:07.709Z,99239.63
2023-04-12T19:53:34.416Z,99240.00
2023-04-12T19:56:01.168Z,99244.53
2023-04-12T19:58:27.799Z,99242.63
2023-04-12T20:00:54.611Z,99235.56
2023-04-12T20:03:21.448Z,99240.16
2023-04-12T20:05:48.109Z,99240.59
2023-04-12T20:08:15.000Z,99241.19
2023-04-12T20:10:42.121Z,99239.50
2023-04-12T20:13:08.759Z,99231.28
2023-04-12T20:15:35.477Z,99233.72
2023-04-12T20:18:02.286Z,99230.56
2023-04-12T20:20:29.087Z,99226.88
2023-04-12T20:22:55.725Z,99232.56
2023-04-12T20:25:22.432Z,99228.66
2023-04-12T20:27:49.035Z,99228.22
2023-04-12T20:30:15.665Z,99225.81
2023-04-12T20:32:42.338Z,99230.28
2023-04-12T20:35:09.769Z,99229.19
2023-04-12T20:37:36.578Z,99228.56
2023-04-12T20:40:03.323Z,99227.56
2023-04-12T20:42:29.958Z,99231.88
2023-04-12T20:44:56.811Z,99224.31
2023-04-12T20:47:23.464Z,99227.09
2023-04-12T20:49:50.075Z,99221.69
2023-04-12T20:52:16.790Z,99215.75
2023-04-12T20:54:43.433Z,99210.88
2023-04-12T20:57:10.223Z,99213.06
2023-04-12T20:59:37.034Z,99206.59
2023-04-12T21:02:03.948Z,99211.41
2023-04-12T21:04:33.074Z,99209.41
2023-04-12T21:06:59.810Z,99205.06
2023-04-12T21:09:26.450Z,99203.63
2023-04-12T21:11:53.120Z,99209.22
2023-04-12T21:14:20.382Z,99201.44
2023-04-12T21:16:47.488Z,99199.06
2023-04-12T21:19:17.436Z,99187.34
2023-04-12T21:21:45.004Z,99193.75
2023-04-12T21:24:11.678Z,99195.78
2023-04-12T21:26:38.284Z,99198.25
2023-04-12T21:29:04.961Z,99211.09
2023-04-12T21:31:31.648Z,99204.94
2023-04-12T21:33:58.622Z,99208.88
2023-04-12T21:36:26.422Z,99208.13
2023-04-12T21:38:53.195Z,99192.88
2023-04-12T21:41:19.981Z,99190.69
2023-04-12T21:43:46.685Z,99190.53
2023-04-12T21:46:13.373Z,99194.03
2023-04-12T21:48:40.226Z,99189.72
2023-04-12T21:51:07.169Z,99182.00
2023-04-12T21:53:33.811Z,99172.56
2023-04-12T21:56:00.486Z,99183.31
2023-04-12T21:58:27.217Z,99176.66
2023-04-12T22:00:54.007Z,99170.81
2023-04-12T22:03:20.700Z,99159.78
2023-04-12T22:06:00.890Z,99158.13
2023-04-12T22:08:30.841Z,99148.66
2023-04-12T22:10:57.434Z,99147.88
2023-04-12T22:13:24.066Z,99156.94
2023-04-12T22:15:51.006Z,99150.09
2023-04-12T22:18:17.669Z,99155.41
2023-04-12T22:20:44.540Z,99146.91
2023-04-12T22:23:11.228Z,99152.53
2023-04-12T22:25:40.422Z,99153.38
2023-04-12T22:28:07.132Z,99157.63
2023-04-12T22:30:33.766Z,99156.28
2023-04-12T22:33:00.422Z,99151.09
2023-04-12T22:35:27.123Z,99152.66
2023-04-12T22:37:53.896Z,99149.03
2023-04-12T22:40:20.614Z,99147.41
2023-04-12T22:42:48.385Z,99144.81
2023-04-12T22:45:16.637Z,99144.06
2023-04-12T22:47:45.940Z,99145.97
2023-04-12T22:50:13.034Z,99144.31
2023-04-12T22:52:40.076Z,99146.03
2023-04-12T22:55:11.171Z,99142.19
2023-04-12T22:57:37.810Z,99151.59
2023-04-12T23:00:05.450Z,99150.22
2023-04-12T23:02:32.662Z,99146.72
2023-04-12T23:05:00.054Z,99143.22
2023-04-12T23:07:26.965Z,99146.84
2023-04-12T23:09:53.669Z,99139.97
2023-04-12T23:12:20.303Z,99139.28
2023-04-12T23:14:46.950Z,99135.91
2023-04-12T23:17:13.892Z,99144.41
2023-04-12T23:19:40.610Z,99134.00
2023-04-12T23:22:07.273Z,99136.19
2023-04-12T23:24:33.933Z,99138.94
2023-04-12T23:27:00.734Z,99132.59
2023-04-12T23:29:27.432Z,99130.91
2023-04-12T23:31:54.059Z,99129.94
2023-04-12T23:34:20.733Z,99134.50
2023-04-12T23:36:48.059Z,99128.78
2023-04-12T23:39:14.706Z,99118.94
2023-04-12T23:41:41.284Z,99121.78
2023-04-12T23:44:07.995Z,99121.47
2023-04-12T23:46:34.611Z,99117.81
2023-04-12T23:49:01.301Z,99117.31
2023-04-12T23:51:27.945Z,99114.63
2023-04-12T23:53:54.566Z,99112.78
2023-04-12T23:56:21.447Z,99108.44
2023-04-12T23:58:48.191Z,99100.09
